createdAt,value
2019-05-15T00:00:50.993Z,10.30
2019-05-15T00:03:21.447Z,10.20
2019-05-15T00:05:50.917Z,10.20
2019-05-15T00:08:20.344Z,10.20
2019-05-15T00:10:49.766Z,10.10
2019-05-15T00:13:19.259Z,10.10
2019-05-15T00:15:48.836Z,10.10
2019-05-15T00:18:18.637Z,10.10
2019-05-15T00:20:49.625Z,10.10
2019-05-15T00:23:19.272Z,10.10
2019-05-15T00:25:49.000Z,10.00
2019-05-15T00:28:18.637Z,10.00
2019-05-15T00:30:48.224Z,10.00
2019-05-15T00:33:19.317Z,10.00
2019-05-15T00:35:48.861Z,10.00
2019-05-15T00:38:18.753Z,10.00
2019-05-15T00:40:49.631Z,10.00
2019-05-15T00:43:19.181Z,9.90
2019-05-15T00:45:48.957Z,9.90
2019-05-15T00:48:18.527Z,9.90
2019-05-15T00:50:48.515Z,9.90
2019-05-15T00:53:19.607Z,9.90
2019-05-15T00:55:49.279Z,9.90
2019-05-15T00:58:19.889Z,9.90
2019-05-15T01:00:49.670Z,9.80
2019-05-15T01:03:19.050Z,9.80
2019-05-15T01:05:48.846Z,9.80
2019-05-15T01:08:19.195Z,9.70
2019-05-15T01:10:48.992Z,9.60
2019-05-15T01:13:18.954Z,9.60
2019-05-15T01:15:49.120Z,9.60
2019-05-15T01:18:18.970Z,9.60
2019-05-15T01:20:49.309Z,9.60
2019-05-15T01:23:19.231Z,9.50
2019-05-15T01:25:48.692Z,9.50
2019-05-15T01:28:18.443Z,9.50
2019-05-15T01:30:48.590Z,9.50
2019-05-15T01:33:19.021Z,9.60
2019-05-15T01:35:48.891Z,9.60
2019-05-15T01:38:18.849Z,9.50
2019-05-15T01:40:48.682Z,9.50
2019-05-15T01:43:20.647Z,9.50
2019-05-15T01:45:50.100Z,9.50
2019-05-15T01:48:19.509Z,9.50
2019-05-15T01:50:49.388Z,9.50
2019-05-15T01:53:18.991Z,9.50
2019-05-15T01:55:48.529Z,9.50
2019-05-15T01:58:18.799Z,9.50
2019-05-15T02:00:48.630Z,9.50
2019-05-15T02:03:18.504Z,9.50
2019-05-15T02:05:48.224Z,9.50
2019-05-15T02:08:19.145Z,9.50
2019-05-15T02:10:49.385Z,9.40
2019-05-15T02:13:19.267Z,9.40
2019-05-15T02:15:50.114Z,9.40
2019-05-15T02:18:19.571Z,9.40
2019-05-15T02:20:49.506Z,9.40
2019-05-15T02:23:19.107Z,9.50
2019-05-15T02:25:48.698Z,9.50
2019-05-15T02:28:18.551Z,9.50
2019-05-15T02:30:50.411Z,9.50
2019-05-15T02:33:19.274Z,9.50
2019-05-15T02:35:50.149Z,9.40
2019-05-15T02:38:20.330Z,9.50
2019-05-15T02:40:49.910Z,9.50
2019-05-15T02:43:19.382Z,9.40
2019-05-15T02:45:50.841Z,9.40
2019-05-15T02:48:20.227Z,9.30
2019-05-15T02:50:50.258Z,9.30
2019-05-15T02:53:19.841Z,9.30
2019-05-15T02:55:49.844Z,9.30
2019-05-15T02:58:21.363Z,9.30
2019-05-15T03:00:53.283Z,9.20
2019-05-15T03:03:21.561Z,9.20
2019-05-15T03:05:51.102Z,9.10
2019-05-15T03:08:20.507Z,9.10
2019-05-15T03:10:50.110Z,9.00
2019-05-15T03:13:19.686Z,8.90
2019-05-15T03:15:49.275Z,8.90
2019-05-15T03:18:19.449Z,8.80
2019-05-15T03:20:50.148Z,8.80
2019-05-15T03:23:22.372Z,8.80
2019-05-15T03:27:08.944Z,8.70
2019-05-15T03:31:01.559Z,8.70
2019-05-15T03:36:52.908Z,8.70
2019-05-15T03:39:21.463Z,8.70
2019-05-15T03:41:51.084Z,8.70
2019-05-15T03:44:20.512Z,8.70
2019-05-15T03:46:49.929Z,8.70
2019-05-15T03:49:20.766Z,8.60
2019-05-15T03:51:51.556Z,8.60
2019-05-15T03:54:20.949Z,8.60
2019-05-15T03:56:50.339Z,8.60
2019-05-15T03:59:19.737Z,8.60
2019-05-15T04:01:49.856Z,8.60
2019-05-15T04:04:19.352Z,8.50
2019-05-15T04:06:49.892Z,8.60
2019-05-15T04:09:22.556Z,8.60
2019-05-15T04:11:51.958Z,8.70
2019-05-15T04:14:21.490Z,8.70
2019-05-15T04:16:51.081Z,8.60
2019-05-15T04:23:05.583Z,8.70
2019-05-15T04:26:08.935Z,8.70
2019-05-15T04:28:49.192Z,8.60
2019-05-15T04:31:52.000Z,8.60
2019-05-15T04:34:14.052Z,8.70
2019-05-15T04:36:45.614Z,8.70
2019-05-15T04:39:34.580Z,8.70
2019-05-15T04:42:29.888Z,8.70
2019-05-15T04:44:55.427Z,8.80
2019-05-15T04:47:34.942Z,8.90
2019-05-15T04:50:09.088Z,9.10
2019-05-15T04:52:43.200Z,9.60
2019-05-15T04:55:19.454Z,9.80
2019-05-15T04:57:55.094Z,9.80
2019-05-15T05:00:54.410Z,9.80
2019-05-15T05:03:29.301Z,9.80
2019-05-15T05:06:00.876Z,9.80
2019-05-15T05:08:30.739Z,9.70
2019-05-15T05:11:01.581Z,9.90
2019-05-15T05:13:39.755Z,9.90
2019-05-15T05:16:09.708Z,10.00
2019-05-15T05:18:44.459Z,10.00
2019-05-15T05:21:18.566Z,10.00
2019-05-15T05:23:52.971Z,10.00
2019-05-15T05:26:41.703Z,10.00
2019-05-15T05:29:31.852Z,9.90
2019-05-15T05:32:11.324Z,9.90
2019-05-15T05:34:58.867Z,9.80
2019-05-15T05:37:30.930Z,9.80
2019-05-15T05:40:10.709Z,9.80
2019-05-15T05:42:59.591Z,9.80
2019-05-15T05:51:11.402Z,9.90
2019-05-15T05:53:48.004Z,9.90
2019-05-15T05:56:28.759Z,9.90
2019-05-15T05:58:58.576Z,10.00
2019-05-15T06:01:28.402Z,10.10
2019-05-15T06:03:58.296Z,10.10
2019-05-15T06:06:29.295Z,10.10
2019-05-15T06:08:58.829Z,10.10
2019-05-15T06:11:28.186Z,10.20
2019-05-15T06:13:58.398Z,10.30
2019-05-15T06:16:28.342Z,10.40
2019-05-15T06:18:58.643Z,10.40
2019-05-15T06:21:28.634Z,10.60
2019-05-15T06:24:04.033Z,10.70
2019-05-15T06:26:29.005Z,10.70
2019-05-15T06:28:58.616Z,10.80
2019-05-15T06:31:28.163Z,10.90
2019-05-15T06:33:58.174Z,11.10
2019-05-15T06:36:28.867Z,11.10
2019-05-15T06:38:59.004Z,11.10
2019-05-15T06:41:28.706Z,11.10
2019-05-15T06:43:58.927Z,11.20
2019-05-15T06:46:28.376Z,11.20
2019-05-15T06:49:00.766Z,11.30
2019-05-15T06:51:30.082Z,11.20
2019-05-15T06:53:59.378Z,11.10
2019-05-15T06:56:28.761Z,11.00
2019-05-15T06:58:59.262Z,11.00
2019-05-15T07:01:31.301Z,11.00
2019-05-15T07:04:00.687Z,11.00
2019-05-15T07:10:11.478Z,11.10
2019-05-15T07:21:18.195Z,11.50
2019-05-15T07:30:35.014Z,11.60
2019-05-15T07:33:15.622Z,11.70
2019-05-15T07:35:45.748Z,11.70
2019-05-15T07:38:15.345Z,11.70
2019-05-15T07:40:55.467Z,11.70
2019-05-15T07:43:18.302Z,11.80
2019-05-15T07:45:54.127Z,11.80
2019-05-15T07:48:19.148Z,11.80
2019-05-15T07:50:49.740Z,11.90
2019-05-15T07:53:20.308Z,11.90
2019-05-15T07:55:51.228Z,12.00
2019-05-15T07:58:27.763Z,12.10
2019-05-15T08:00:59.008Z,12.10
2019-05-15T08:03:59.582Z,12.00
2019-05-15T08:06:14.775Z,12.10
2019-05-15T08:08:55.965Z,12.10
2019-05-15T08:11:28.343Z,12.10
2019-05-15T08:13:58.166Z,12.20
2019-05-15T08:16:28.670Z,12.20
2019-05-15T08:18:58.493Z,12.20
2019-05-15T08:21:29.224Z,12.30
2019-05-15T08:24:19.595Z,12.20
2019-05-15T08:26:49.354Z,12.30
2019-05-15T08:29:21.800Z,12.30
2019-05-15T08:31:51.902Z,12.40
2019-05-15T08:34:28.822Z,12.50
2019-05-15T08:37:07.934Z,12.50
2019-05-15T08:39:38.215Z,12.50
2019-05-15T08:42:22.601Z,12.50
2019-05-15T08:45:00.531Z,12.60
2019-05-15T08:47:32.549Z,12.60
2019-05-15T08:50:14.689Z,12.60
2019-05-15T08:52:57.924Z,12.70
2019-05-15T08:55:41.163Z,12.70
2019-05-15T08:58:23.991Z,12.80
2019-05-15T09:00:58.710Z,12.90
2019-05-15T09:03:48.817Z,12.90
2019-05-15T09:06:45.805Z,13.00
2019-05-15T09:09:18.231Z,13.00
2019-05-15T09:15:32.399Z,13.10
2019-05-15T09:18:20.821Z,13.30
2019-05-15T09:20:50.354Z,13.30
2019-05-15T09:23:20.295Z,13.40
2019-05-15T09:25:50.027Z,13.50
2019-05-15T09:28:20.791Z,13.60
2019-05-15T09:30:50.286Z,13.70
2019-05-15T09:33:20.382Z,13.80
2019-05-15T09:35:49.989Z,13.90
2019-05-15T09:38:20.010Z,14.00
2019-05-15T09:40:50.990Z,14.10
2019-05-15T09:43:20.786Z,14.20
2019-05-15T09:45:50.319Z,14.20
2019-05-15T09:48:20.315Z,14.30
2019-05-15T09:50:49.885Z,14.40
2019-05-15T09:53:19.536Z,14.50
2019-05-15T09:55:49.760Z,14.60
2019-05-15T09:58:20.824Z,14.70
2019-05-15T10:00:52.565Z,14.70
2019-05-15T10:03:22.026Z,14.90
2019-05-15T10:05:51.509Z,14.90
2019-05-15T10:08:21.643Z,15.10
2019-05-15T10:10:51.374Z,15.10
2019-05-15T10:13:20.916Z,15.10
2019-05-15T10:15:51.221Z,15.10
2019-05-15T10:18:20.890Z,15.20
2019-05-15T10:20:50.462Z,15.20
2019-05-15T10:23:20.144Z,15.30
2019-05-15T10:25:49.634Z,15.30
2019-05-15T10:28:19.634Z,15.40
2019-05-15T10:30:50.028Z,15.50
2019-05-15T10:33:20.472Z,15.50
2019-05-15T10:35:50.121Z,15.60
2019-05-15T10:38:19.783Z,15.60
2019-05-15T10:41:03.020Z,15.70
2019-05-15T10:43:21.062Z,15.80
2019-05-15T10:45:54.175Z,15.90
2019-05-15T10:48:21.885Z,16.00
2019-05-15T10:50:51.385Z,16.10
2019-05-15T10:53:22.020Z,16.20
2019-05-15T10:55:51.523Z,16.30
2019-05-15T10:58:21.927Z,16.30
2019-05-15T11:00:51.892Z,16.30
2019-05-15T11:03:21.420Z,16.40
2019-05-15T11:05:50.955Z,16.50
2019-05-15T11:08:20.490Z,16.60
2019-05-15T11:10:50.110Z,16.60
2019-05-15T11:13:19.871Z,16.60
2019-05-15T11:15:49.561Z,16.70
2019-05-15T11:18:19.051Z,16.70
2019-05-15T11:20:49.081Z,16.80
2019-05-15T11:23:20.044Z,16.80
2019-05-15T11:25:49.889Z,16.80
2019-05-15T11:28:23.093Z,16.90
2019-05-15T11:30:52.609Z,17.00
2019-05-15T11:33:22.348Z,17.10
2019-05-15T11:36:06.048Z,17.10
2019-05-15T11:38:34.018Z,17.30
2019-05-15T11:41:04.732Z,17.30
2019-05-15T11:43:34.413Z,17.40
2019-05-15T11:46:04.055Z,17.50
2019-05-15T11:48:33.625Z,17.70
2019-05-15T11:51:03.169Z,17.70
2019-05-15T11:53:32.688Z,17.70
2019-05-15T11:56:02.353Z,17.70
2019-05-15T11:58:31.844Z,17.90
2019-05-15T12:01:01.568Z,17.90
2019-05-15T12:03:31.088Z,18.00
2019-05-15T12:06:14.864Z,18.10
2019-05-15T12:08:31.983Z,18.10
2019-05-15T12:11:01.607Z,18.30
2019-05-15T12:13:31.259Z,18.40
2019-05-15T12:16:00.875Z,18.40
2019-05-15T12:18:30.443Z,18.40
2019-05-15T12:21:00.129Z,18.50
2019-05-15T12:23:29.596Z,18.40
2019-05-15T12:25:59.925Z,18.50
2019-05-15T12:28:29.871Z,18.50
2019-05-15T12:30:59.883Z,18.70
2019-05-15T12:33:29.687Z,18.70
2019-05-15T12:35:59.352Z,18.70
2019-05-15T12:38:29.222Z,18.70
2019-05-15T13:01:17.484Z,19.20
2019-05-15T13:03:39.825Z,19.30
2019-05-15T13:06:09.475Z,19.30
2019-05-15T13:08:39.003Z,19.40
2019-05-15T13:11:10.137Z,19.50
2019-05-15T13:13:39.667Z,19.60
2019-05-15T13:16:09.305Z,19.80
2019-05-15T13:18:38.915Z,19.90
2019-05-15T13:21:08.800Z,19.90
2019-05-15T13:23:38.797Z,20.00
2019-05-15T13:26:21.583Z,20.00
2019-05-15T13:28:40.233Z,19.90
2019-05-15T13:31:09.775Z,20.00
2019-05-15T13:33:39.344Z,19.90
2019-05-15T13:36:09.119Z,19.90
2019-05-15T13:38:38.702Z,20.00
2019-05-15T13:41:09.459Z,19.70
2019-05-15T13:43:39.130Z,19.60
2019-05-15T13:46:08.980Z,19.60
2019-05-15T13:48:38.765Z,19.70
2019-05-15T13:51:08.561Z,19.80
2019-05-15T13:53:38.626Z,19.90
2019-05-15T13:56:08.431Z,20.10
2019-05-15T13:58:38.884Z,20.20
2019-05-15T14:01:09.474Z,20.20
2019-05-15T14:03:39.218Z,20.40
2019-05-15T14:06:09.260Z,20.40
2019-05-15T14:08:39.493Z,20.50
2019-05-15T14:11:09.085Z,20.60
2019-05-15T14:13:39.160Z,20.70
2019-05-15T14:16:09.661Z,20.80
2019-05-15T14:18:39.590Z,20.90
2019-05-15T14:21:09.169Z,21.00
2019-05-15T14:23:38.775Z,21.10
2019-05-15T14:26:17.800Z,21.20
2019-05-15T14:28:39.778Z,21.30
2019-05-15T14:31:09.871Z,21.40
2019-05-15T14:33:39.590Z,21.40
2019-05-15T14:36:09.172Z,21.40
2019-05-15T14:38:39.471Z,21.50
2019-05-15T14:41:09.005Z,21.60
2019-05-15T14:43:38.578Z,21.60
2019-05-15T14:46:08.328Z,21.70
2019-05-15T14:48:38.598Z,21.80
2019-05-15T14:51:08.671Z,21.80
2019-05-15T14:53:38.720Z,21.70
2019-05-15T14:56:08.766Z,21.70
2019-05-15T14:58:38.871Z,21.70
2019-05-15T15:01:12.240Z,21.70
2019-05-15T15:03:39.627Z,21.60
2019-05-15T15:06:09.206Z,21.70
2019-05-15T15:08:38.747Z,21.80
2019-05-15T15:11:08.858Z,22.00
2019-05-15T15:13:38.440Z,22.10
2019-05-15T15:16:08.697Z,22.20
2019-05-15T15:18:38.762Z,22.30
2019-05-15T15:21:08.758Z,22.30
2019-05-15T15:23:58.703Z,22.20
2019-05-15T15:26:28.510Z,22.20
2019-05-15T15:28:59.035Z,22.10
2019-05-15T15:31:29.055Z,22.00
2019-05-15T15:33:58.528Z,22.00
2019-05-15T15:36:28.680Z,22.00
2019-05-15T15:38:58.812Z,22.00
2019-05-15T15:41:28.735Z,22.00
2019-05-15T15:43:59.497Z,22.10
2019-05-15T15:46:30.500Z,22.10
2019-05-15T15:49:00.282Z,22.20
2019-05-15T15:51:31.428Z,22.10
2019-05-15T15:54:01.376Z,22.20
2019-05-15T15:56:31.314Z,22.30
2019-05-15T15:59:04.051Z,22.20
2019-05-15T16:01:38.851Z,22.10
2019-05-15T16:04:08.342Z,22.10
2019-05-15T16:06:38.902Z,22.10
2019-05-15T16:09:08.843Z,22.00
2019-05-15T16:11:38.820Z,21.90
2019-05-15T16:14:09.424Z,22.00
2019-05-15T16:16:39.012Z,22.10
2019-05-15T16:19:09.344Z,22.20
2019-05-15T16:21:39.471Z,22.20
2019-05-15T16:24:17.560Z,22.20
2019-05-15T16:26:40.987Z,22.30
2019-05-15T16:29:10.580Z,22.50
2019-05-15T16:31:40.392Z,22.60
2019-05-15T16:34:09.857Z,22.80
2019-05-15T16:36:40.048Z,22.80
2019-05-15T16:39:11.847Z,22.90
2019-05-15T16:41:41.878Z,22.80
2019-05-15T16:44:11.763Z,22.40
2019-05-15T16:46:41.913Z,22.20
2019-05-15T16:49:11.704Z,22.10
2019-05-15T16:51:41.489Z,22.00
2019-05-15T16:54:11.359Z,21.80
2019-05-15T16:56:41.329Z,21.60
2019-05-15T16:59:11.214Z,21.50
2019-05-15T17:01:48.868Z,21.40
2019-05-15T17:04:18.603Z,21.30
2019-05-15T17:06:49.387Z,21.20
2019-05-15T17:09:22.019Z,21.30
2019-05-15T17:11:51.450Z,21.20
2019-05-15T17:14:21.134Z,21.00
2019-05-15T17:16:51.027Z,20.80
2019-05-15T17:19:21.623Z,20.40
2019-05-15T17:21:51.517Z,20.20
2019-05-15T17:24:21.425Z,19.80
2019-05-15T17:26:51.628Z,19.50
2019-05-15T17:29:22.609Z,19.20
2019-05-15T17:31:54.486Z,19.00
2019-05-15T17:34:30.193Z,18.60
2019-05-15T17:37:05.976Z,18.40
2019-05-15T17:39:41.681Z,18.20
2019-05-15T17:42:11.210Z,18.00
2019-05-15T17:44:40.726Z,17.80
2019-05-15T17:47:11.367Z,17.60
2019-05-15T17:49:41.312Z,17.50
2019-05-15T17:52:11.186Z,17.30
2019-05-15T17:54:41.016Z,17.10
2019-05-15T17:57:11.086Z,17.00
2019-05-15T17:59:40.762Z,17.00
2019-05-15T18:02:10.195Z,16.90
2019-05-15T18:04:39.625Z,16.80
2019-05-15T18:07:09.110Z,16.70
2019-05-15T18:09:50.708Z,16.60
2019-05-15T18:12:11.807Z,16.50
2019-05-15T18:14:41.381Z,16.40
2019-05-15T18:17:20.318Z,16.30
2019-05-15T18:19:50.230Z,16.30
2019-05-15T18:22:20.331Z,16.20
2019-05-15T18:24:50.373Z,16.20
2019-05-15T18:27:20.150Z,16.10
2019-05-15T18:29:51.647Z,15.90
2019-05-15T18:32:28.495Z,15.80
2019-05-15T18:34:58.763Z,15.80
2019-05-15T18:37:28.591Z,15.80
2019-05-15T18:40:05.304Z,15.80
2019-05-15T18:42:29.923Z,15.70
2019-05-15T18:44:59.530Z,15.60
2019-05-15T18:47:31.375Z,15.60
2019-05-15T18:50:05.755Z,15.60
2019-05-15T18:52:32.168Z,15.50
2019-05-15T18:55:02.430Z,15.40
2019-05-15T18:57:32.296Z,15.30
2019-05-15T19:00:02.054Z,15.20
2019-05-15T19:02:31.898Z,15.20
2019-05-15T19:05:01.733Z,15.00
2019-05-15T19:07:31.961Z,14.90
2019-05-15T19:10:01.638Z,14.80
2019-05-15T19:12:31.095Z,14.80
2019-05-15T19:15:01.757Z,14.70
2019-05-15T19:17:32.322Z,14.70
2019-05-15T19:20:01.954Z,14.60
2019-05-15T19:22:44.374Z,14.60
2019-05-15T19:25:14.587Z,14.50
2019-05-15T19:27:44.279Z,14.40
2019-05-15T19:30:14.415Z,14.40
2019-05-15T19:32:44.310Z,14.40
2019-05-15T19:35:15.106Z,14.40
2019-05-15T19:37:45.146Z,14.40
2019-05-15T19:40:15.424Z,14.40
2019-05-15T19:42:45.070Z,14.40
2019-05-15T19:45:15.910Z,14.40
2019-05-15T19:47:47.771Z,14.40
2019-05-15T19:50:24.072Z,14.30
2019-05-15T19:52:59.179Z,14.20
2019-05-15T19:55:39.234Z,14.20
2019-05-15T19:58:09.199Z,14.20
2019-05-15T20:00:39.092Z,14.10
2019-05-15T20:03:09.093Z,14.10
2019-05-15T20:05:45.214Z,14.10
2019-05-15T20:08:14.958Z,14.10
2019-05-15T20:10:44.839Z,14.10
2019-05-15T20:13:22.435Z,14.00
2019-05-15T20:15:54.838Z,14.00
2019-05-15T20:18:41.158Z,14.00
2019-05-15T20:21:30.032Z,14.00
2019-05-15T20:24:14.333Z,13.90
2019-05-15T20:27:01.153Z,13.90
2019-05-15T20:29:34.531Z,13.90
2019-05-15T20:32:13.935Z,13.80
2019-05-15T20:34:52.478Z,13.80
2019-05-15T20:37:39.014Z,13.80
2019-05-15T20:40:27.329Z,13.80
2019-05-15T20:43:08.493Z,13.70
2019-05-15T20:45:45.674Z,13.80
2019-05-15T20:48:18.470Z,13.80
2019-05-15T20:50:52.235Z,13.80
2019-05-15T20:53:31.879Z,13.80
2019-05-15T20:56:08.373Z,13.80
2019-05-15T20:58:49.853Z,13.70
2019-05-15T21:01:19.196Z,13.60
2019-05-15T21:04:00.302Z,13.60
2019-05-15T21:06:41.282Z,13.50
2019-05-15T21:09:16.123Z,13.60
2019-05-15T21:11:58.647Z,13.50
2019-05-15T21:14:27.732Z,13.50
2019-05-15T21:17:08.265Z,13.60
2019-05-15T21:19:43.943Z,13.60
2019-05-15T21:22:28.372Z,13.60
2019-05-15T21:24:58.030Z,13.50
2019-05-15T21:27:32.773Z,13.50
2019-05-15T21:29:59.271Z,13.60
2019-05-15T21:32:28.868Z,13.60
2019-05-15T21:34:58.482Z,13.60
2019-05-15T21:37:30.382Z,13.60
2019-05-15T21:39:59.109Z,13.50
2019-05-15T21:42:28.627Z,13.50
2019-05-15T21:44:58.266Z,13.60
2019-05-15T21:47:28.110Z,13.60
2019-05-15T21:49:57.671Z,13.60
2019-05-15T21:52:29.370Z,13.60
2019-05-15T21:55:01.522Z,13.60
2019-05-15T21:57:36.272Z,13.60
2019-05-15T22:00:01.043Z,13.60
2019-05-15T22:02:30.863Z,13.60
2019-05-15T22:05:00.417Z,13.60
2019-05-15T22:07:29.887Z,13.50
2019-05-15T22:09:59.490Z,13.50
2019-05-15T22:12:28.923Z,13.50
2019-05-15T22:14:58.391Z,13.40
2019-05-15T22:17:29.292Z,13.40
2019-05-15T22:19:58.915Z,13.40
2019-05-15T22:22:28.595Z,13.40
2019-05-15T22:24:58.040Z,13.40
2019-05-15T22:27:29.016Z,13.40
2019-05-15T22:29:58.869Z,13.30
2019-05-15T22:32:29.157Z,13.20
2019-05-15T22:35:09.851Z,13.20
2019-05-15T22:37:30.446Z,13.20
2019-05-15T22:40:00.826Z,13.10
2019-05-15T22:42:31.810Z,13.00
2019-05-15T22:45:01.807Z,13.00
2019-05-15T22:47:31.244Z,12.90
2019-05-15T22:50:00.946Z,12.90
2019-05-15T22:52:30.507Z,12.90
2019-05-15T22:55:00.059Z,12.80
2019-05-15T22:57:29.581Z,12.80
2019-05-15T22:59:59.470Z,12.80
2019-05-15T23:02:28.974Z,12.80
2019-05-15T23:05:00.368Z,12.80
2019-05-15T23:07:30.064Z,12.80
2019-05-15T23:09:59.585Z,12.80
2019-05-15T23:12:29.156Z,12.90
2019-05-15T23:14:58.683Z,12.80
2019-05-15T23:17:28.204Z,12.80
2019-05-15T23:19:58.206Z,12.80
2019-05-15T23:22:28.051Z,12.70
2019-05-15T23:24:58.508Z,12.70
2019-05-15T23:27:28.746Z,12.70
2019-05-15T23:29:58.320Z,12.60
2019-05-15T23:32:28.914Z,12.60
2019-05-15T23:34:58.534Z,12.70
2019-05-15T23:37:28.164Z,12.60
2019-05-15T23:39:58.034Z,12.60
2019-05-15T23:42:29.219Z,12.50
2019-05-15T23:44:58.960Z,12.60
2019-05-15T23:47:28.650Z,12.60
2019-05-15T23:49:58.296Z,12.60
2019-05-15T23:52:27.804Z,12.50
2019-05-15T23:54:58.932Z,12.50
2019-05-15T23:57:28.735Z,12.50
2019-05-15T23:59:58.299Z,12.50
